This is the latest recevied weather packets stored in our database for station/object EA2BK-11. If no packets are shown the sender has not sent any weather packets the latest 1 day(s).
| Time | Temp. | Humidity | Pressure | Rain* | Wind** | Luminosity | Snow |
|---|---|---|---|---|---|---|---|
| 1778091248 | 25° C | 27% | 943 hPa | - | - | - | - |
| 1778085817 | 29.44° C | 21% | 943 hPa | - | - | - | - |
| 1778082196 | 30° C | 21% | 943 hPa | - | - | - | - |
| 1778081291 | 30.56° C | 21% | 943 hPa | - | - | - | - |
| 1778077670 | 25° C | 29% | 943 hPa | - | - | - | - |
| 1778076765 | 23.33° C | 31% | 944 hPa | - | - | - | - |
| 1778075860 | 23.33° C | 30% | 944 hPa | - | - | - | - |
| 1778072239 | 24.44° C | 29% | 944 hPa | - | - | - | - |
| 1778071334 | 20.56° C | 36% | 944 hPa | - | - | - | - |
| 1778070429 | 20.56° C | 35% | 944 hPa | - | - | - | - |
| 1778066808 | 18.33° C | 40% | 944 hPa | - | - | - | - |
| 1778065903 | 18.33° C | 41% | 945 hPa | - | - | - | - |
| 1778062282 | 17.22° C | 43% | 945 hPa | - | - | - | - |
| 1778061377 | 16.67° C | 45% | 945 hPa | - | - | - | - |
| 1778060472 | 16.11° C | 46% | 945 hPa | - | - | - | - |
| 1778059567 | 16.11° C | 46% | 945 hPa | - | - | - | - |
| 1778057756 | 16.11° C | 49% | 945 hPa | - | - | - | - |
| 1778056851 | 15° C | 50% | 945 hPa | - | - | - | - |
| 1778055946 | 14.44° C | 53% | 945 hPa | - | - | - | - |
| 1778055041 | 13.89° C | 55% | 945 hPa | - | - | - | - |
| 1778051420 | 12.78° C | 56% | 945 hPa | - | - | - | - |
| 1778046894 | 11.11° C | 64% | 945 hPa | - | - | - | - |
| 1778045989 | 10.56° C | 65% | 944 hPa | - | - | - | - |
| 1778045084 | 10° C | 67% | 944 hPa | - | - | - | - |
| 1778042368 | 9.44° C | 68% | 944 hPa | - | - | - | - |
* Rain since midnight (hover to see other rain measurements)
** Current wind speed in m/s (hover to see current wind gust speed)